sensor_id;sensor_type;location;lat;lon;timestamp;temperature;humidity
3713;DHT22;1872;51.406;6.856;2022-09-09T00:00:19;15.70;99.90
3713;DHT22;1872;51.406;6.856;2022-09-09T00:08:24;15.60;99.90
3713;DHT22;1872;51.406;6.856;2022-09-09T00:11:01;15.60;99.90
3713;DHT22;1872;51.406;6.856;2022-09-09T00:13:46;15.60;99.90
3713;DHT22;1872;51.406;6.856;2022-09-09T00:19:06;15.60;99.90
3713;DHT22;1872;51.406;6.856;2022-09-09T00:21:37;15.60;99.90
3713;DHT22;1872;51.406;6.856;2022-09-09T00:24:31;15.60;99.90
3713;DHT22;1872;51.406;6.856;2022-09-09T00:27:11;15.60;99.90
3713;DHT22;1872;51.406;6.856;2022-09-09T00:29:47;15.50;99.90
3713;DHT22;1872;51.406;6.856;2022-09-09T00:32:20;15.50;99.90
3713;DHT22;1872;51.406;6.856;2022-09-09T00:35:02;15.50;99.90
3713;DHT22;1872;51.406;6.856;2022-09-09T00:37:29;15.40;99.90
3713;DHT22;1872;51.406;6.856;2022-09-09T00:39:59;15.40;99.90
3713;DHT22;1872;51.406;6.856;2022-09-09T00:42:43;15.50;99.90
3713;DHT22;1872;51.406;6.856;2022-09-09T00:45:35;15.40;99.90
3713;DHT22;1872;51.406;6.856;2022-09-09T00:48:28;15.40;99.90
3713;DHT22;1872;51.406;6.856;2022-09-09T00:51:01;15.40;99.90
3713;DHT22;1872;51.406;6.856;2022-09-09T00:53:51;15.40;99.90
3713;DHT22;1872;51.406;6.856;2022-09-09T00:56:26;15.40;99.90
3713;DHT22;1872;51.406;6.856;2022-09-09T00:59:47;15.40;99.90
3713;DHT22;1872;51.406;6.856;2022-09-09T01:02:35;15.40;99.90
3713;DHT22;1872;51.406;6.856;2022-09-09T01:05:13;15.40;99.90
3713;DHT22;1872;51.406;6.856;2022-09-09T01:07:44;15.40;99.90
3713;DHT22;1872;51.406;6.856;2022-09-09T01:10:25;15.40;99.90
3713;DHT22;1872;51.406;6.856;2022-09-09T01:12:55;15.40;99.90
3713;DHT22;1872;51.406;6.856;2022-09-09T01:15:27;15.40;99.90
3713;DHT22;1872;51.406;6.856;2022-09-09T01:18:05;15.40;99.90
3713;DHT22;1872;51.406;6.856;2022-09-09T01:23:17;15.30;99.90
3713;DHT22;1872;51.406;6.856;2022-09-09T01:28:47;15.30;99.90
3713;DHT22;1872;51.406;6.856;2022-09-09T01:31:26;15.30;99.90
3713;DHT22;1872;51.406;6.856;2022-09-09T01:33:53;15.20;99.90
3713;DHT22;1872;51.406;6.856;2022-09-09T01:36:27;15.20;99.90
3713;DHT22;1872;51.406;6.856;2022-09-09T01:38:55;15.20;99.90
3713;DHT22;1872;51.406;6.856;2022-09-09T01:41:21;15.10;99.90
3713;DHT22;1872;51.406;6.856;2022-09-09T01:43:47;15.10;99.90
3713;DHT22;1872;51.406;6.856;2022-09-09T01:46:13;15.00;99.90
3713;DHT22;1872;51.406;6.856;2022-09-09T01:48:41;15.00;99.90
3713;DHT22;1872;51.406;6.856;2022-09-09T01:51:09;15.00;99.90
3713;DHT22;1872;51.406;6.856;2022-09-09T01:53:39;14.90;99.90
3713;DHT22;1872;51.406;6.856;2022-09-09T01:59:36;14.90;99.90
3713;DHT22;1872;51.406;6.856;2022-09-09T02:02:11;14.90;99.90
3713;DHT22;1872;51.406;6.856;2022-09-09T02:04:53;14.90;99.90
3713;DHT22;1872;51.406;6.856;2022-09-09T02:07:50;14.90;99.90
3713;DHT22;1872;51.406;6.856;2022-09-09T02:10:36;14.90;99.90
3713;DHT22;1872;51.406;6.856;2022-09-09T02:13:12;14.90;99.90
3713;DHT22;1872;51.406;6.856;2022-09-09T02:15:52;14.90;99.90
3713;DHT22;1872;51.406;6.856;2022-09-09T02:18:24;14.90;99.90
3713;DHT22;1872;51.406;6.856;2022-09-09T02:20:52;15.00;99.90
3713;DHT22;1872;51.406;6.856;2022-09-09T02:23:19;15.00;99.90
3713;DHT22;1872;51.406;6.856;2022-09-09T02:25:46;15.00;99.90
3713;DHT22;1872;51.406;6.856;2022-09-09T02:28:14;15.10;99.90
3713;DHT22;1872;51.406;6.856;2022-09-09T02:30:42;15.10;99.90
3713;DHT22;1872;51.406;6.856;2022-09-09T02:33:11;15.10;99.90
3713;DHT22;1872;51.406;6.856;2022-09-09T02:35:39;15.20;99.90
3713;DHT22;1872;51.406;6.856;2022-09-09T02:38:08;15.20;99.90
3713;DHT22;1872;51.406;6.856;2022-09-09T02:40:35;15.20;99.90
3713;DHT22;1872;51.406;6.856;2022-09-09T02:43:00;15.20;99.90
3713;DHT22;1872;51.406;6.856;2022-09-09T02:45:34;15.30;99.90
3713;DHT22;1872;51.406;6.856;2022-09-09T02:48:14;15.30;99.90
3713;DHT22;1872;51.406;6.856;2022-09-09T02:51:12;15.30;99.90
3713;DHT22;1872;51.406;6.856;2022-09-09T02:53:47;15.30;99.90
3713;DHT22;1872;51.406;6.856;2022-09-09T02:56:21;15.20;99.90
3713;DHT22;1872;51.406;6.856;2022-09-09T02:58:47;15.20;99.90
3713;DHT22;1872;51.406;6.856;2022-09-09T03:01:14;15.20;99.90
3713;DHT22;1872;51.406;6.856;2022-09-09T03:03:40;15.20;99.90
3713;DHT22;1872;51.406;6.856;2022-09-09T03:06:07;15.20;99.90
3713;DHT22;1872;51.406;6.856;2022-09-09T03:08:33;15.20;99.90
3713;DHT22;1872;51.406;6.856;2022-09-09T03:10:59;15.20;99.90
3713;DHT22;1872;51.406;6.856;2022-09-09T03:13:27;15.20;99.90
3713;DHT22;1872;51.406;6.856;2022-09-09T03:15:53;15.20;99.90
3713;DHT22;1872;51.406;6.856;2022-09-09T03:18:19;15.20;99.90
3713;DHT22;1872;51.406;6.856;2022-09-09T03:20:46;15.20;99.90
3713;DHT22;1872;51.406;6.856;2022-09-09T03:23:14;15.20;99.90
3713;DHT22;1872;51.406;6.856;2022-09-09T03:25:45;15.20;99.90
3713;DHT22;1872;51.406;6.856;2022-09-09T03:28:11;15.20;99.90
3713;DHT22;1872;51.406;6.856;2022-09-09T03:30:37;15.20;99.90
3713;DHT22;1872;51.406;6.856;2022-09-09T03:33:03;15.20;99.90
3713;DHT22;1872;51.406;6.856;2022-09-09T03:35:29;15.20;99.90
3713;DHT22;1872;51.406;6.856;2022-09-09T03:37:55;15.20;99.90
3713;DHT22;1872;51.406;6.856;2022-09-09T03:40:21;15.20;99.90
3713;DHT22;1872;51.406;6.856;2022-09-09T03:42:47;15.20;99.90
3713;DHT22;1872;51.406;6.856;2022-09-09T03:45:14;15.20;99.90
3713;DHT22;1872;51.406;6.856;2022-09-09T03:47:40;15.30;99.90
3713;DHT22;1872;51.406;6.856;2022-09-09T03:50:07;15.30;99.90
3713;DHT22;1872;51.406;6.856;2022-09-09T03:52:37;15.30;99.90
3713;DHT22;1872;51.406;6.856;2022-09-09T03:55:04;15.30;99.90
3713;DHT22;1872;51.406;6.856;2022-09-09T03:57:30;15.30;99.90
3713;DHT22;1872;51.406;6.856;2022-09-09T03:59:56;15.30;99.90
3713;DHT22;1872;51.406;6.856;2022-09-09T04:02:21;15.30;99.90
3713;DHT22;1872;51.406;6.856;2022-09-09T04:04:47;15.30;99.90
3713;DHT22;1872;51.406;6.856;2022-09-09T04:07:13;15.20;99.90
3713;DHT22;1872;51.406;6.856;2022-09-09T04:09:39;15.20;99.90
3713;DHT22;1872;51.406;6.856;2022-09-09T04:12:04;15.20;99.90
3713;DHT22;1872;51.406;6.856;2022-09-09T04:14:32;15.20;99.90
3713;DHT22;1872;51.406;6.856;2022-09-09T04:16:57;15.10;99.90
3713;DHT22;1872;51.406;6.856;2022-09-09T04:19:25;15.10;99.90
3713;DHT22;1872;51.406;6.856;2022-09-09T04:21:50;15.10;99.90
3713;DHT22;1872;51.406;6.856;2022-09-09T04:24:17;15.10;99.90
3713;DHT22;1872;51.406;6.856;2022-09-09T04:26:43;15.10;99.90
3713;DHT22;1872;51.406;6.856;2022-09-09T04:29:09;15.10;99.90
3713;DHT22;1872;51.406;6.856;2022-09-09T04:31:35;15.00;99.90
3713;DHT22;1872;51.406;6.856;2022-09-09T04:34:00;15.10;99.90
3713;DHT22;1872;51.406;6.856;2022-09-09T04:36:31;15.00;99.90
3713;DHT22;1872;51.406;6.856;2022-09-09T04:38:57;15.00;99.90
3713;DHT22;1872;51.406;6.856;2022-09-09T04:41:23;15.00;99.90
3713;DHT22;1872;51.406;6.856;2022-09-09T04:43:49;15.00;99.90
3713;DHT22;1872;51.406;6.856;2022-09-09T04:46:15;15.10;99.90
3713;DHT22;1872;51.406;6.856;2022-09-09T04:48:42;15.10;99.90
3713;DHT22;1872;51.406;6.856;2022-09-09T04:51:11;15.10;99.90
3713;DHT22;1872;51.406;6.856;2022-09-09T04:53:37;15.10;99.90
3713;DHT22;1872;51.406;6.856;2022-09-09T04:56:08;15.10;99.90
3713;DHT22;1872;51.406;6.856;2022-09-09T04:58:36;15.20;99.90
3713;DHT22;1872;51.406;6.856;2022-09-09T05:03:38;15.20;99.90
3713;DHT22;1872;51.406;6.856;2022-09-09T05:06:09;15.20;99.90
3713;DHT22;1872;51.406;6.856;2022-09-09T05:08:39;15.20;99.90
3713;DHT22;1872;51.406;6.856;2022-09-09T05:11:26;15.20;99.90
3713;DHT22;1872;51.406;6.856;2022-09-09T05:13:53;15.30;99.90
3713;DHT22;1872;51.406;6.856;2022-09-09T05:16:19;15.30;99.90
3713;DHT22;1872;51.406;6.856;2022-09-09T05:18:45;15.30;99.90
3713;DHT22;1872;51.406;6.856;2022-09-09T05:21:14;15.30;99.90
3713;DHT22;1872;51.406;6.856;2022-09-09T05:23:40;15.30;99.90
3713;DHT22;1872;51.406;6.856;2022-09-09T05:26:06;15.30;99.90
3713;DHT22;1872;51.406;6.856;2022-09-09T05:28:34;15.30;99.90
3713;DHT22;1872;51.406;6.856;2022-09-09T05:31:04;15.30;99.90
3713;DHT22;1872;51.406;6.856;2022-09-09T05:33:30;15.30;99.90
3713;DHT22;1872;51.406;6.856;2022-09-09T05:36:01;15.40;99.90
3713;DHT22;1872;51.406;6.856;2022-09-09T05:38:28;15.40;99.90
3713;DHT22;1872;51.406;6.856;2022-09-09T05:40:54;15.40;99.90
3713;DHT22;1872;51.406;6.856;2022-09-09T05:43:22;15.40;99.90
3713;DHT22;1872;51.406;6.856;2022-09-09T05:45:58;15.40;99.90
3713;DHT22;1872;51.406;6.856;2022-09-09T05:48:28;15.40;99.90
3713;DHT22;1872;51.406;6.856;2022-09-09T05:50:53;15.40;99.90
3713;DHT22;1872;51.406;6.856;2022-09-09T05:53:20;15.50;99.90
3713;DHT22;1872;51.406;6.856;2022-09-09T05:55:46;15.50;99.90
3713;DHT22;1872;51.406;6.856;2022-09-09T05:58:13;15.50;99.90
3713;DHT22;1872;51.406;6.856;2022-09-09T06:00:40;15.50;99.90
3713;DHT22;1872;51.406;6.856;2022-09-09T06:03:06;15.60;99.90
3713;DHT22;1872;51.406;6.856;2022-09-09T06:05:31;15.60;99.90
3713;DHT22;1872;51.406;6.856;2022-09-09T06:07:58;15.60;99.90
3713;DHT22;1872;51.406;6.856;2022-09-09T06:10:23;15.60;99.90
3713;DHT22;1872;51.406;6.856;2022-09-09T06:12:52;15.70;99.90
3713;DHT22;1872;51.406;6.856;2022-09-09T06:15:18;15.70;99.90
3713;DHT22;1872;51.406;6.856;2022-09-09T06:17:43;15.70;99.90
3713;DHT22;1872;51.406;6.856;2022-09-09T06:20:10;15.80;99.90
3713;DHT22;1872;51.406;6.856;2022-09-09T06:22:36;15.80;99.90
3713;DHT22;1872;51.406;6.856;2022-09-09T06:25:01;15.90;99.90
3713;DHT22;1872;51.406;6.856;2022-09-09T06:27:27;15.90;99.90
3713;DHT22;1872;51.406;6.856;2022-09-09T06:29:54;15.90;99.90
3713;DHT22;1872;51.406;6.856;2022-09-09T06:32:19;16.00;99.90
3713;DHT22;1872;51.406;6.856;2022-09-09T06:34:45;16.00;99.90
3713;DHT22;1872;51.406;6.856;2022-09-09T06:37:10;16.00;99.90
3713;DHT22;1872;51.406;6.856;2022-09-09T06:39:37;16.10;99.90
3713;DHT22;1872;51.406;6.856;2022-09-09T06:42:03;16.10;99.90
3713;DHT22;1872;51.406;6.856;2022-09-09T06:44:29;16.20;99.90
3713;DHT22;1872;51.406;6.856;2022-09-09T06:46:57;16.30;99.90
3713;DHT22;1872;51.406;6.856;2022-09-09T06:49:22;16.30;99.90
3713;DHT22;1872;51.406;6.856;2022-09-09T06:51:48;16.40;99.90
3713;DHT22;1872;51.406;6.856;2022-09-09T06:54:15;16.40;99.90
3713;DHT22;1872;51.406;6.856;2022-09-09T06:56:42;16.50;99.90
3713;DHT22;1872;51.406;6.856;2022-09-09T06:59:09;16.60;99.90
3713;DHT22;1872;51.406;6.856;2022-09-09T07:01:36;16.60;99.90
3713;DHT22;1872;51.406;6.856;2022-09-09T07:04:03;16.90;99.90
3713;DHT22;1872;51.406;6.856;2022-09-09T07:06:35;17.10;99.90
3713;DHT22;1872;51.406;6.856;2022-09-09T07:09:03;17.30;99.90
3713;DHT22;1872;51.406;6.856;2022-09-09T07:11:31;17.50;99.90
3713;DHT22;1872;51.406;6.856;2022-09-09T07:13:59;17.60;99.90
3713;DHT22;1872;51.406;6.856;2022-09-09T07:16:25;17.70;99.90
3713;DHT22;1872;51.406;6.856;2022-09-09T07:18:53;17.70;99.90
3713;DHT22;1872;51.406;6.856;2022-09-09T07:21:23;17.80;99.90
3713;DHT22;1872;51.406;6.856;2022-09-09T07:23:50;17.90;99.90
3713;DHT22;1872;51.406;6.856;2022-09-09T07:26:20;18.10;99.90
3713;DHT22;1872;51.406;6.856;2022-09-09T07:28:47;18.20;99.90
3713;DHT22;1872;51.406;6.856;2022-09-09T07:31:16;18.40;99.90
3713;DHT22;1872;51.406;6.856;2022-09-09T07:33:43;18.40;99.90
3713;DHT22;1872;51.406;6.856;2022-09-09T07:36:29;18.40;99.90
3713;DHT22;1872;51.406;6.856;2022-09-09T07:38:57;18.40;99.90
3713;DHT22;1872;51.406;6.856;2022-09-09T07:41:29;18.40;99.90
3713;DHT22;1872;51.406;6.856;2022-09-09T07:43:56;18.50;99.90
3713;DHT22;1872;51.406;6.856;2022-09-09T07:46:23;18.70;99.90
3713;DHT22;1872;51.406;6.856;2022-09-09T07:48:54;18.70;99.90
3713;DHT22;1872;51.406;6.856;2022-09-09T07:51:26;18.70;99.90
3713;DHT22;1872;51.406;6.856;2022-09-09T07:53:54;18.70;99.90
3713;DHT22;1872;51.406;6.856;2022-09-09T07:56:20;18.60;99.90
3713;DHT22;1872;51.406;6.856;2022-09-09T07:58:49;18.50;99.90
3713;DHT22;1872;51.406;6.856;2022-09-09T08:01:20;18.40;99.90
3713;DHT22;1872;51.406;6.856;2022-09-09T08:03:47;18.30;99.90
3713;DHT22;1872;51.406;6.856;2022-09-09T08:06:17;18.30;99.90
3713;DHT22;1872;51.406;6.856;2022-09-09T08:08:42;18.30;99.90
3713;DHT22;1872;51.406;6.856;2022-09-09T08:11:14;18.30;99.90
3713;DHT22;1872;51.406;6.856;2022-09-09T08:13:43;18.60;99.90
3713;DHT22;1872;51.406;6.856;2022-09-09T08:16:14;18.70;99.90
3713;DHT22;1872;51.406;6.856;2022-09-09T08:18:40;18.80;99.90
3713;DHT22;1872;51.406;6.856;2022-09-09T08:21:08;18.80;99.90
3713;DHT22;1872;51.406;6.856;2022-09-09T08:23:36;18.70;99.90
3713;DHT22;1872;51.406;6.856;2022-09-09T08:26:06;18.60;99.90
3713;DHT22;1872;51.406;6.856;2022-09-09T08:28:32;18.60;99.90
3713;DHT22;1872;51.406;6.856;2022-09-09T08:31:10;18.50;99.90
3713;DHT22;1872;51.406;6.856;2022-09-09T08:33:36;18.40;99.90
3713;DHT22;1872;51.406;6.856;2022-09-09T08:36:05;18.40;99.90
3713;DHT22;1872;51.406;6.856;2022-09-09T08:38:31;18.30;99.90
3713;DHT22;1872;51.406;6.856;2022-09-09T08:41:07;18.40;99.90
3713;DHT22;1872;51.406;6.856;2022-09-09T08:43:35;18.40;99.90
3713;DHT22;1872;51.406;6.856;2022-09-09T08:46:26;18.50;99.90
3713;DHT22;1872;51.406;6.856;2022-09-09T08:49:05;18.80;99.90
3713;DHT22;1872;51.406;6.856;2022-09-09T08:51:36;19.10;99.90
3713;DHT22;1872;51.406;6.856;2022-09-09T08:54:03;19.30;99.90
3713;DHT22;1872;51.406;6.856;2022-09-09T08:56:32;19.50;99.90
3713;DHT22;1872;51.406;6.856;2022-09-09T08:59:00;19.70;99.90
3713;DHT22;1872;51.406;6.856;2022-09-09T09:12:15;19.50;99.90
3713;DHT22;1872;51.406;6.856;2022-09-09T09:14:42;19.60;99.90
3713;DHT22;1872;51.406;6.856;2022-09-09T09:17:15;19.60;99.90
3713;DHT22;1872;51.406;6.856;2022-09-09T09:19:43;19.60;99.90
3713;DHT22;1872;51.406;6.856;2022-09-09T09:22:25;19.50;99.90
3713;DHT22;1872;51.406;6.856;2022-09-09T09:25:20;19.50;99.90
3713;DHT22;1872;51.406;6.856;2022-09-09T09:30:19;19.30;99.90
3713;DHT22;1872;51.406;6.856;2022-09-09T09:32:58;19.20;99.90
3713;DHT22;1872;51.406;6.856;2022-09-09T09:35:26;19.20;99.90
3713;DHT22;1872;51.406;6.856;2022-09-09T09:37:53;19.10;99.90
3713;DHT22;1872;51.406;6.856;2022-09-09T09:40:21;19.10;99.90
3713;DHT22;1872;51.406;6.856;2022-09-09T09:42:51;19.10;99.90
3713;DHT22;1872;51.406;6.856;2022-09-09T09:48:03;19.00;99.90
3713;DHT22;1872;51.406;6.856;2022-09-09T09:50:29;19.00;99.90
3713;DHT22;1872;51.406;6.856;2022-09-09T09:53:03;19.00;99.90
3713;DHT22;1872;51.406;6.856;2022-09-09T09:55:31;19.00;99.90
3713;DHT22;1872;51.406;6.856;2022-09-09T09:58:04;19.00;99.90
3713;DHT22;1872;51.406;6.856;2022-09-09T10:00:30;18.90;99.90
3713;DHT22;1872;51.406;6.856;2022-09-09T10:02:56;19.00;99.90
3713;DHT22;1872;51.406;6.856;2022-09-09T10:05:36;19.00;99.90
3713;DHT22;1872;51.406;6.856;2022-09-09T10:08:11;19.30;99.90
3713;DHT22;1872;51.406;6.856;2022-09-09T10:10:54;19.50;99.90
3713;DHT22;1872;51.406;6.856;2022-09-09T10:19:31;20.00;99.90
3713;DHT22;1872;51.406;6.856;2022-09-09T10:33:49;20.20;99.90
3713;DHT22;1872;51.406;6.856;2022-09-09T10:36:24;20.20;99.90
3713;DHT22;1872;51.406;6.856;2022-09-09T10:47:04;20.20;99.90
3713;DHT22;1872;51.406;6.856;2022-09-09T10:55:42;20.00;99.90
3713;DHT22;1872;51.406;6.856;2022-09-09T10:58:20;20.00;99.90
3713;DHT22;1872;51.406;6.856;2022-09-09T11:00:51;20.00;99.90
3713;DHT22;1872;51.406;6.856;2022-09-09T11:03:26;20.20;99.90
3713;DHT22;1872;51.406;6.856;2022-09-09T11:06:14;20.30;99.90
3713;DHT22;1872;51.406;6.856;2022-09-09T11:08:42;20.40;99.90
3713;DHT22;1872;51.406;6.856;2022-09-09T11:11:19;20.50;99.90
3713;DHT22;1872;51.406;6.856;2022-09-09T11:18:55;20.80;99.90
3713;DHT22;1872;51.406;6.856;2022-09-09T11:21:38;20.80;99.90
3713;DHT22;1872;51.406;6.856;2022-09-09T11:24:16;20.80;99.90
3713;DHT22;1872;51.406;6.856;2022-09-09T11:26:54;20.80;99.90
3713;DHT22;1872;51.406;6.856;2022-09-09T11:30:05;20.80;99.90
3713;DHT22;1872;51.406;6.856;2022-09-09T11:38:52;20.60;99.90
3713;DHT22;1872;51.406;6.856;2022-09-09T11:41:22;20.60;99.90
3713;DHT22;1872;51.406;6.856;2022-09-09T11:43:51;20.50;99.90
3713;DHT22;1872;51.406;6.856;2022-09-09T11:46:23;20.50;99.90
3713;DHT22;1872;51.406;6.856;2022-09-09T11:49:01;20.40;99.90
3713;DHT22;1872;51.406;6.856;2022-09-09T11:51:29;20.30;99.90
3713;DHT22;1872;51.406;6.856;2022-09-09T11:54:28;20.30;99.90
3713;DHT22;1872;51.406;6.856;2022-09-09T11:56:48;20.20;99.90
3713;DHT22;1872;51.406;6.856;2022-09-09T11:59:23;20.20;99.90
3713;DHT22;1872;51.406;6.856;2022-09-09T12:02:10;20.30;99.90
3713;DHT22;1872;51.406;6.856;2022-09-09T12:14:55;20.80;99.90
3713;DHT22;1872;51.406;6.856;2022-09-09T12:17:26;20.80;99.90
3713;DHT22;1872;51.406;6.856;2022-09-09T12:28:10;20.40;99.90
3713;DHT22;1872;51.406;6.856;2022-09-09T12:30:56;20.40;99.90
3713;DHT22;1872;51.406;6.856;2022-09-09T12:33:24;20.50;99.90
3713;DHT22;1872;51.406;6.856;2022-09-09T12:35:59;20.60;99.90
3713;DHT22;1872;51.406;6.856;2022-09-09T12:38:37;20.70;99.90
3713;DHT22;1872;51.406;6.856;2022-09-09T12:41:04;20.80;99.90
3713;DHT22;1872;51.406;6.856;2022-09-09T12:43:29;20.90;99.90
3713;DHT22;1872;51.406;6.856;2022-09-09T12:46:00;20.90;99.90
3713;DHT22;1872;51.406;6.856;2022-09-09T12:48:47;20.90;99.90
3713;DHT22;1872;51.406;6.856;2022-09-09T12:51:24;20.90;99.90
3713;DHT22;1872;51.406;6.856;2022-09-09T12:53:51;20.90;99.90
3713;DHT22;1872;51.406;6.856;2022-09-09T12:56:28;20.70;99.90
3713;DHT22;1872;51.406;6.856;2022-09-09T12:58:56;20.60;99.90
3713;DHT22;1872;51.406;6.856;2022-09-09T13:01:31;20.50;99.90
3713;DHT22;1872;51.406;6.856;2022-09-09T13:03:59;20.30;99.90
3713;DHT22;1872;51.406;6.856;2022-09-09T13:06:27;20.00;99.90
3713;DHT22;1872;51.406;6.856;2022-09-09T13:08:54;19.70;99.90
3713;DHT22;1872;51.406;6.856;2022-09-09T13:11:25;19.50;99.90
3713;DHT22;1872;51.406;6.856;2022-09-09T13:13:53;19.30;99.90
3713;DHT22;1872;51.406;6.856;2022-09-09T13:18:45;19.00;99.90
3713;DHT22;1872;51.406;6.856;2022-09-09T13:21:13;18.90;99.90
3713;DHT22;1872;51.406;6.856;2022-09-09T13:23:39;18.90;99.90
3713;DHT22;1872;51.406;6.856;2022-09-09T13:26:20;18.90;99.90
3713;DHT22;1872;51.406;6.856;2022-09-09T13:28:49;18.90;99.90
3713;DHT22;1872;51.406;6.856;2022-09-09T13:31:23;19.00;99.90
3713;DHT22;1872;51.406;6.856;2022-09-09T13:33:49;19.00;99.90
3713;DHT22;1872;51.406;6.856;2022-09-09T13:36:31;19.00;99.90
3713;DHT22;1872;51.406;6.856;2022-09-09T13:38:59;19.00;99.90
3713;DHT22;1872;51.406;6.856;2022-09-09T13:41:44;19.10;99.90
3713;DHT22;1872;51.406;6.856;2022-09-09T13:44:27;19.10;99.90
3713;DHT22;1872;51.406;6.856;2022-09-09T13:47:21;19.10;99.90
3713;DHT22;1872;51.406;6.856;2022-09-09T13:49:48;19.10;99.90
3713;DHT22;1872;51.406;6.856;2022-09-09T13:52:16;19.00;99.90
3713;DHT22;1872;51.406;6.856;2022-09-09T13:54:52;19.00;99.90
3713;DHT22;1872;51.406;6.856;2022-09-09T13:57:22;19.10;99.90
3713;DHT22;1872;51.406;6.856;2022-09-09T13:59:48;19.10;99.90
3713;DHT22;1872;51.406;6.856;2022-09-09T14:02:15;19.20;99.90
3713;DHT22;1872;51.406;6.856;2022-09-09T14:04:42;19.20;99.90
3713;DHT22;1872;51.406;6.856;2022-09-09T14:07:12;19.20;99.90
3713;DHT22;1872;51.406;6.856;2022-09-09T14:09:39;19.30;99.90
3713;DHT22;1872;51.406;6.856;2022-09-09T14:12:08;19.30;99.90
3713;DHT22;1872;51.406;6.856;2022-09-09T14:14:34;19.30;99.90
3713;DHT22;1872;51.406;6.856;2022-09-09T14:17:00;19.40;99.90
3713;DHT22;1872;51.406;6.856;2022-09-09T14:19:25;19.50;99.90
3713;DHT22;1872;51.406;6.856;2022-09-09T14:21:51;19.50;99.90
3713;DHT22;1872;51.406;6.856;2022-09-09T14:24:17;19.60;99.90
3713;DHT22;1872;51.406;6.856;2022-09-09T14:26:43;19.60;99.90
3713;DHT22;1872;51.406;6.856;2022-09-09T14:29:08;19.70;99.90
3713;DHT22;1872;51.406;6.856;2022-09-09T14:31:34;19.80;99.90
3713;DHT22;1872;51.406;6.856;2022-09-09T14:34:00;19.90;99.90
3713;DHT22;1872;51.406;6.856;2022-09-09T14:36:26;19.90;99.90
3713;DHT22;1872;51.406;6.856;2022-09-09T14:38:51;20.00;99.90
3713;DHT22;1872;51.406;6.856;2022-09-09T14:41:19;20.00;99.90
3713;DHT22;1872;51.406;6.856;2022-09-09T14:43:48;20.00;99.90
3713;DHT22;1872;51.406;6.856;2022-09-09T14:46:16;19.80;99.90
3713;DHT22;1872;51.406;6.856;2022-09-09T14:48:42;19.70;99.90
3713;DHT22;1872;51.406;6.856;2022-09-09T14:51:20;19.50;99.90
3713;DHT22;1872;51.406;6.856;2022-09-09T14:53:47;19.20;99.90
3713;DHT22;1872;51.406;6.856;2022-09-09T14:56:19;18.80;99.90
3713;DHT22;1872;51.406;6.856;2022-09-09T14:58:45;18.40;99.90
3713;DHT22;1872;51.406;6.856;2022-09-09T15:01:16;18.00;99.90
3713;DHT22;1872;51.406;6.856;2022-09-09T15:03:48;17.70;99.90
3713;DHT22;1872;51.406;6.856;2022-09-09T15:06:14;17.50;99.90
3713;DHT22;1872;51.406;6.856;2022-09-09T15:08:42;17.20;99.90
3713;DHT22;1872;51.406;6.856;2022-09-09T15:11:10;17.10;99.90
3713;DHT22;1872;51.406;6.856;2022-09-09T15:13:37;16.90;99.90
3713;DHT22;1872;51.406;6.856;2022-09-09T15:16:07;16.90;99.90
3713;DHT22;1872;51.406;6.856;2022-09-09T15:18:34;16.80;99.90
3713;DHT22;1872;51.406;6.856;2022-09-09T15:21:02;16.70;99.90
3713;DHT22;1872;51.406;6.856;2022-09-09T15:23:34;16.60;99.90
3713;DHT22;1872;51.406;6.856;2022-09-09T15:26:00;16.60;99.90
3713;DHT22;1872;51.406;6.856;2022-09-09T15:28:26;16.60;99.90
3713;DHT22;1872;51.406;6.856;2022-09-09T15:30:53;16.50;99.90
3713;DHT22;1872;51.406;6.856;2022-09-09T15:33:20;16.50;99.90
3713;DHT22;1872;51.406;6.856;2022-09-09T15:35:46;16.50;99.90
3713;DHT22;1872;51.406;6.856;2022-09-09T15:38:12;16.50;99.90
3713;DHT22;1872;51.406;6.856;2022-09-09T15:40:41;16.50;99.90
3713;DHT22;1872;51.406;6.856;2022-09-09T15:43:08;16.50;99.90
3713;DHT22;1872;51.406;6.856;2022-09-09T15:45:36;16.60;99.90
3713;DHT22;1872;51.406;6.856;2022-09-09T15:48:03;16.70;99.90
3713;DHT22;1872;51.406;6.856;2022-09-09T15:50:29;16.80;99.90
3713;DHT22;1872;51.406;6.856;2022-09-09T15:52:56;16.80;99.90
3713;DHT22;1872;51.406;6.856;2022-09-09T15:55:22;16.90;99.90
3713;DHT22;1872;51.406;6.856;2022-09-09T15:57:50;17.00;99.90
3713;DHT22;1872;51.406;6.856;2022-09-09T16:00:19;17.10;99.90
3713;DHT22;1872;51.406;6.856;2022-09-09T16:02:48;17.20;99.90
3713;DHT22;1872;51.406;6.856;2022-09-09T16:05:14;17.30;99.90
3713;DHT22;1872;51.406;6.856;2022-09-09T16:07:39;17.30;99.90
3713;DHT22;1872;51.406;6.856;2022-09-09T16:10:09;17.40;99.90
3713;DHT22;1872;51.406;6.856;2022-09-09T16:12:35;17.40;99.90
3713;DHT22;1872;51.406;6.856;2022-09-09T16:15:00;17.50;99.90
3713;DHT22;1872;51.406;6.856;2022-09-09T16:17:26;17.50;99.90
3713;DHT22;1872;51.406;6.856;2022-09-09T16:19:53;17.50;99.90
3713;DHT22;1872;51.406;6.856;2022-09-09T16:22:20;17.50;99.90
3713;DHT22;1872;51.406;6.856;2022-09-09T16:24:45;17.50;99.90
3713;DHT22;1872;51.406;6.856;2022-09-09T16:27:11;17.50;99.90
3713;DHT22;1872;51.406;6.856;2022-09-09T16:29:37;17.60;99.90
3713;DHT22;1872;51.406;6.856;2022-09-09T16:32:03;17.60;99.90
3713;DHT22;1872;51.406;6.856;2022-09-09T16:34:30;17.60;99.90
3713;DHT22;1872;51.406;6.856;2022-09-09T16:36:56;17.60;99.90
3713;DHT22;1872;51.406;6.856;2022-09-09T16:39:21;17.70;99.90
3713;DHT22;1872;51.406;6.856;2022-09-09T16:41:48;17.70;99.90
3713;DHT22;1872;51.406;6.856;2022-09-09T16:44:16;17.70;99.90
3713;DHT22;1872;51.406;6.856;2022-09-09T16:46:44;17.70;99.90
3713;DHT22;1872;51.406;6.856;2022-09-09T16:49:12;17.70;99.90
3713;DHT22;1872;51.406;6.856;2022-09-09T16:51:40;17.80;99.90
3713;DHT22;1872;51.406;6.856;2022-09-09T16:54:07;17.80;99.90
3713;DHT22;1872;51.406;6.856;2022-09-09T16:56:35;17.80;99.90
3713;DHT22;1872;51.406;6.856;2022-09-09T16:59:12;17.70;99.90
3713;DHT22;1872;51.406;6.856;2022-09-09T17:01:40;17.70;99.90
3713;DHT22;1872;51.406;6.856;2022-09-09T17:04:15;17.70;99.90
3713;DHT22;1872;51.406;6.856;2022-09-09T17:06:49;17.60;99.90
3713;DHT22;1872;51.406;6.856;2022-09-09T17:09:16;17.60;99.90
3713;DHT22;1872;51.406;6.856;2022-09-09T17:11:42;17.50;99.90
3713;DHT22;1872;51.406;6.856;2022-09-09T17:14:12;17.50;99.90
3713;DHT22;1872;51.406;6.856;2022-09-09T17:16:38;17.40;99.90
3713;DHT22;1872;51.406;6.856;2022-09-09T17:19:06;17.30;99.90
3713;DHT22;1872;51.406;6.856;2022-09-09T17:21:34;17.30;99.90
3713;DHT22;1872;51.406;6.856;2022-09-09T17:24:01;17.30;99.90
3713;DHT22;1872;51.406;6.856;2022-09-09T17:26:29;17.40;99.90
3713;DHT22;1872;51.406;6.856;2022-09-09T17:28:56;17.40;99.90
3713;DHT22;1872;51.406;6.856;2022-09-09T17:31:23;17.30;99.90
3713;DHT22;1872;51.406;6.856;2022-09-09T17:33:50;17.30;99.90
3713;DHT22;1872;51.406;6.856;2022-09-09T17:36:24;17.20;99.90
3713;DHT22;1872;51.406;6.856;2022-09-09T17:38:51;17.20;99.90
3713;DHT22;1872;51.406;6.856;2022-09-09T17:41:25;17.10;99.90
3713;DHT22;1872;51.406;6.856;2022-09-09T17:43:52;17.10;99.90
3713;DHT22;1872;51.406;6.856;2022-09-09T17:46:20;17.10;99.90
3713;DHT22;1872;51.406;6.856;2022-09-09T17:48:48;17.10;99.90
3713;DHT22;1872;51.406;6.856;2022-09-09T17:51:17;17.10;99.90
3713;DHT22;1872;51.406;6.856;2022-09-09T17:53:47;17.10;99.90
3713;DHT22;1872;51.406;6.856;2022-09-09T17:56:15;17.10;99.90
3713;DHT22;1872;51.406;6.856;2022-09-09T17:58:41;17.10;99.90
3713;DHT22;1872;51.406;6.856;2022-09-09T18:01:12;17.00;99.90